Time;durP1;ratioP1;P1;durP2;ratioP2;P2;SDS_P1;SDS_P2;PMS_P1;PMS_P2;Temp;Humidity;BMP_temperature;BMP_pressure;BME280_temperature;BME280_humidity;BME280_pressure;Samples;Min_cycle;Max_cycle;Signal;HPM_P1;HPM_P2
2022/06/16 00:00:19;;;;;;;1.40;0.90;;;19.80;82.20;;;;;;5023670;28;21295;-79
2022/06/16 00:02:48;;;;;;;1.50;0.90;;;19.80;82.10;;;;;;5034123;28;20540;-78
2022/06/16 00:05:18;;;;;;;1.50;0.90;;;19.80;82.30;;;;;;5030765;28;20475;-79
2022/06/16 00:07:45;;;;;;;1.40;0.90;;;19.80;82.20;;;;;;5034223;28;20591;-78
2022/06/16 00:10:13;;;;;;;1.47;0.90;;;19.70;82.20;;;;;;5031676;28;20928;-77
2022/06/16 00:12:40;;;;;;;1.50;0.90;;;19.70;82.60;;;;;;5032972;28;20540;-76
2022/06/16 00:15:10;;;;;;;1.43;0.90;;;19.70;82.90;;;;;;5027909;28;20582;-76
2022/06/16 00:17:37;;;;;;;1.40;0.90;;;19.70;83.00;;;;;;5029676;28;20468;-76
2022/06/16 00:20:05;;;;;;;1.47;0.90;;;19.60;83.10;;;;;;5029065;28;20471;-76
2022/06/16 00:22:34;;;;;;;1.40;0.90;;;19.60;83.40;;;;;;5034636;28;20482;-76
2022/06/16 00:25:01;;;;;;;1.40;1.00;;;19.50;83.90;;;;;;5030762;28;20491;-76
2022/06/16 00:27:28;;;;;;;1.47;0.90;;;19.50;83.90;;;;;;5033450;28;20565;-76
2022/06/16 00:29:55;;;;;;;1.50;0.90;;;19.40;83.80;;;;;;5031377;28;20472;-76
2022/06/16 00:32:22;;;;;;;1.50;1.00;;;19.40;84.20;;;;;;5027414;28;20986;-76
2022/06/16 00:34:49;;;;;;;1.43;0.90;;;19.30;84.40;;;;;;5029852;28;20495;-76
2022/06/16 00:37:16;;;;;;;1.50;1.00;;;19.30;84.70;;;;;;5030981;28;20569;-77
2022/06/16 00:39:45;;;;;;;1.43;0.90;;;19.20;84.70;;;;;;5032524;28;20954;-77
2022/06/16 00:42:16;;;;;;;1.47;0.90;;;19.20;84.60;;;;;;5026481;28;20486;-78
2022/06/16 00:44:45;;;;;;;1.40;0.90;;;19.20;84.80;;;;;;5030867;28;20483;-79
2022/06/16 00:47:12;;;;;;;1.47;0.90;;;19.10;84.50;;;;;;5038013;28;20505;-80
2022/06/16 00:49:44;;;;;;;1.93;1.73;;;19.10;85.10;;;;;;5031160;28;20467;-78
2022/06/16 00:52:14;;;;;;;1.43;0.97;;;19.10;85.10;;;;;;5031231;28;20498;-78
2022/06/16 00:54:47;;;;;;;1.50;1.00;;;19.10;85.40;;;;;;5031690;28;20567;-79
2022/06/16 00:57:17;;;;;;;1.43;0.90;;;19.00;85.50;;;;;;5036551;28;20928;-80
2022/06/16 00:59:45;;;;;;;1.47;0.90;;;19.00;85.10;;;;;;5025748;28;20950;-77
2022/06/16 01:02:12;;;;;;;1.50;0.90;;;19.00;84.90;;;;;;5025045;28;20502;-80
2022/06/16 01:04:53;;;;;;;1.40;1.00;;;19.00;84.80;;;;;;5025876;28;20519;-78
2022/06/16 01:07:25;;;;;;;1.43;0.90;;;18.90;84.90;;;;;;5035481;28;20455;-79
2022/06/16 01:09:55;;;;;;;1.47;0.90;;;18.90;85.00;;;;;;5009580;28;20464;-81
2022/06/16 01:15:38;;;;;;;1.47;0.90;;;18.80;85.00;;;;;;5028979;28;20486;-78
2022/06/16 01:18:25;;;;;;;1.43;0.90;;;18.80;85.30;;;;;;5032755;28;20481;-78
2022/06/16 01:21:00;;;;;;;1.43;0.90;;;18.80;85.30;;;;;;5028500;28;20467;-80
2022/06/16 01:24:08;;;;;;;1.43;0.90;;;18.80;85.30;;;;;;5031921;28;20501;-78
2022/06/16 01:27:25;;;;;;;1.40;0.90;;;18.80;85.50;;;;;;5032586;28;20542;-81
2022/06/16 01:29:59;;;;;;;2.87;1.53;;;18.80;85.50;;;;;;5029054;28;20459;-77
2022/06/16 01:32:34;;;;;;;1.50;1.00;;;18.80;85.20;;;;;;5031377;28;20514;-77
2022/06/16 01:35:11;;;;;;;1.47;0.90;;;18.70;84.70;;;;;;5029680;28;20585;-77
2022/06/16 01:37:49;;;;;;;1.50;0.90;;;18.70;85.20;;;;;;5035952;28;20551;-77
2022/06/16 01:40:22;;;;;;;1.47;0.90;;;18.60;85.00;;;;;;5027369;28;20574;-80
2022/06/16 01:42:57;;;;;;;1.50;0.90;;;18.60;85.00;;;;;;5037678;28;21016;-79
2022/06/16 01:45:31;;;;;;;1.50;0.90;;;18.50;84.80;;;;;;5025761;28;20575;-78
2022/06/16 01:48:00;;;;;;;1.43;0.90;;;18.50;84.90;;;;;;5040427;28;20513;-82
2022/06/16 01:50:32;;;;;;;1.43;1.00;;;18.50;85.20;;;;;;5030070;28;20555;-78
2022/06/16 01:53:02;;;;;;;1.47;0.90;;;18.40;85.00;;;;;;5039202;28;20478;-80
2022/06/16 01:55:34;;;;;;;1.40;0.90;;;18.40;85.00;;;;;;5031285;28;20510;-81
2022/06/16 01:58:07;;;;;;;1.43;0.90;;;18.40;85.00;;;;;;5030174;28;20494;-78
2022/06/16 02:00:35;;;;;;;1.50;0.90;;;18.40;85.30;;;;;;5029408;28;20541;-78
2022/06/16 02:03:07;;;;;;;1.40;0.90;;;18.30;85.30;;;;;;5030241;28;20892;-79
2022/06/16 02:05:40;;;;;;;1.50;0.90;;;18.40;85.10;;;;;;5031111;28;20550;-79
2022/06/16 02:08:11;;;;;;;1.50;0.90;;;18.40;85.50;;;;;;5032116;28;20463;-77
2022/06/16 02:10:43;;;;;;;1.43;0.90;;;18.30;85.60;;;;;;5028640;28;20478;-78
2022/06/16 02:13:12;;;;;;;1.43;0.90;;;18.30;86.00;;;;;;5011003;28;20572;-78
2022/06/16 02:15:49;;;;;;;1.47;1.00;;;18.20;86.10;;;;;;5025512;28;20508;-78
2022/06/16 02:18:19;;;;;;;1.43;0.90;;;18.20;86.00;;;;;;5017757;28;20489;-80
2022/06/16 02:20:53;;;;;;;1.50;0.90;;;18.20;85.80;;;;;;5018972;28;20467;-80
2022/06/16 02:23:21;;;;;;;1.50;1.10;;;18.10;86.20;;;;;;5042190;28;21030;-78
2022/06/16 02:25:52;;;;;;;1.50;0.90;;;18.10;86.20;;;;;;5020627;28;20549;-76
2022/06/16 02:28:19;;;;;;;1.40;1.00;;;18.10;86.40;;;;;;5051047;28;20470;-79
2022/06/16 02:31:02;;;;;;;1.47;0.90;;;18.00;86.00;;;;;;5019291;28;20532;-80
2022/06/16 02:33:36;;;;;;;1.47;0.90;;;18.00;86.30;;;;;;5042286;28;20991;-80
2022/06/16 02:36:15;;;;;;;1.40;0.90;;;18.00;86.40;;;;;;5027139;28;20585;-79
2022/06/16 02:38:52;;;;;;;1.43;0.97;;;18.00;86.50;;;;;;5050298;28;20463;-81
2022/06/16 02:41:29;;;;;;;1.47;0.90;;;17.90;86.10;;;;;;5025931;28;20473;-80
2022/06/16 02:44:10;;;;;;;1.47;0.90;;;17.90;85.90;;;;;;5040008;28;20500;-78
2022/06/16 02:46:52;;;;;;;1.50;0.90;;;17.80;86.20;;;;;;5030576;28;20569;-81
2022/06/16 02:49:31;;;;;;;1.50;0.90;;;17.80;86.00;;;;;;5040544;28;20466;-82
2022/06/16 02:52:10;;;;;;;1.47;0.97;;;17.80;86.10;;;;;;5033538;28;20531;-81
2022/06/16 02:54:51;;;;;;;1.50;0.90;;;17.70;86.00;;;;;;5034622;28;21006;-77
2022/06/16 02:57:25;;;;;;;1.47;0.90;;;17.70;86.30;;;;;;5036687;28;20482;-78
2022/06/16 02:59:58;;;;;;;1.50;0.90;;;17.60;86.70;;;;;;5036057;28;20477;-79
2022/06/16 03:02:27;;;;;;;1.43;0.90;;;17.60;86.70;;;;;;5034260;28;20467;-79
2022/06/16 03:04:57;;;;;;;1.40;0.90;;;17.50;87.00;;;;;;5034440;28;20479;-77
2022/06/16 03:07:28;;;;;;;1.53;1.10;;;17.40;86.50;;;;;;5036866;28;20494;-79
2022/06/16 03:09:55;;;;;;;1.50;1.00;;;17.40;87.10;;;;;;5033409;28;20470;-78
2022/06/16 03:12:22;;;;;;;1.50;0.90;;;17.40;87.00;;;;;;5024648;28;21016;-81
2022/06/16 03:14:49;;;;;;;1.50;0.93;;;17.30;87.10;;;;;;5025226;28;20483;-78
2022/06/16 03:17:17;;;;;;;1.50;0.90;;;17.30;87.10;;;;;;5034562;28;20518;-77
2022/06/16 03:19:45;;;;;;;1.50;0.90;;;17.20;87.10;;;;;;5032924;28;20494;-78
2022/06/16 03:22:12;;;;;;;1.50;0.90;;;17.20;87.20;;;;;;5037951;28;20478;-79
2022/06/16 03:24:40;;;;;;;1.43;0.93;;;17.20;87.10;;;;;;5035957;28;20491;-78
2022/06/16 03:27:08;;;;;;;1.50;0.97;;;17.20;87.50;;;;;;5032790;28;21053;-80
2022/06/16 03:29:35;;;;;;;1.50;1.00;;;17.10;87.00;;;;;;5038238;28;20467;-81
2022/06/16 03:32:01;;;;;;;1.47;0.90;;;17.20;87.20;;;;;;5036567;28;20458;-79
2022/06/16 03:34:28;;;;;;;1.40;0.90;;;17.20;87.30;;;;;;5033795;28;20487;-83
2022/06/16 03:36:56;;;;;;;1.50;1.00;;;17.10;87.20;;;;;;5030824;28;20510;-77
2022/06/16 03:39:24;;;;;;;1.47;0.93;;;17.00;87.20;;;;;;5038340;28;20523;-81
2022/06/16 03:41:51;;;;;;;1.43;0.90;;;17.00;87.10;;;;;;5029249;28;20474;-81
2022/06/16 03:44:18;;;;;;;1.47;0.90;;;17.00;87.30;;;;;;5025686;28;20505;-80
2022/06/16 03:46:45;;;;;;;1.50;1.00;;;17.00;86.90;;;;;;5038012;28;20489;-79
2022/06/16 03:49:12;;;;;;;1.40;1.00;;;17.00;87.40;;;;;;5044816;28;20819;-78
2022/06/16 03:51:38;;;;;;;1.47;1.00;;;17.00;87.30;;;;;;5030226;28;20489;-78
2022/06/16 03:54:07;;;;;;;1.40;0.90;;;17.00;87.20;;;;;;5041185;28;20926;-77
2022/06/16 03:56:34;;;;;;;1.40;0.90;;;17.00;87.30;;;;;;5035026;28;20489;-79
2022/06/16 03:59:00;;;;;;;1.43;0.90;;;17.00;87.30;;;;;;5044109;28;20477;-80
2022/06/16 04:01:27;;;;;;;1.50;0.90;;;17.10;87.20;;;;;;5027335;28;20478;-81
2022/06/16 04:03:59;;;;;;;1.50;1.00;;;17.00;87.50;;;;;;5043561;28;20491;-79
2022/06/16 04:06:27;;;;;;;1.50;0.90;;;17.10;87.40;;;;;;5035171;28;20470;-80
2022/06/16 04:08:54;;;;;;;1.43;0.90;;;17.00;87.70;;;;;;5033459;28;20951;-80
2022/06/16 04:11:27;;;;;;;1.47;0.90;;;17.00;87.50;;;;;;5023952;28;20470;-77
2022/06/16 04:13:56;;;;;;;1.47;0.90;;;17.00;87.70;;;;;;5041172;28;20471;-76
2022/06/16 04:16:24;;;;;;;1.50;1.00;;;17.00;87.40;;;;;;5031072;28;20477;-78
2022/06/16 04:18:51;;;;;;;1.50;1.00;;;16.90;87.60;;;;;;5041685;28;20467;-77
2022/06/16 04:21:17;;;;;;;1.50;0.90;;;16.90;87.20;;;;;;5023746;28;20482;-80
2022/06/16 04:23:45;;;;;;;1.43;1.00;;;16.90;87.70;;;;;;5044243;28;21030;-81
2022/06/16 04:26:12;;;;;;;1.50;0.90;;;16.90;87.40;;;;;;5027098;28;20493;-78
2022/06/16 04:28:40;;;;;;;1.40;0.90;;;16.90;87.50;;;;;;5044111;28;20463;-80
2022/06/16 04:31:07;;;;;;;1.47;0.90;;;16.90;87.90;;;;;;5033726;28;20471;-81
2022/06/16 04:33:34;;;;;;;1.50;1.20;;;16.90;87.60;;;;;;5032887;28;20595;-80
2022/06/16 04:36:01;;;;;;;1.50;0.90;;;16.90;87.20;;;;;;5025508;28;20470;-77
2022/06/16 04:38:28;;;;;;;1.50;0.90;;;16.90;87.40;;;;;;5045627;28;20534;-78
2022/06/16 04:40:55;;;;;;;1.47;0.90;;;16.90;87.20;;;;;;5032790;28;21111;-78
2022/06/16 04:43:22;;;;;;;1.40;0.90;;;17.10;87.30;;;;;;5027805;28;20566;-79
2022/06/16 04:45:50;;;;;;;1.47;0.90;;;17.20;87.40;;;;;;5031204;28;20459;-85
2022/06/16 04:48:17;;;;;;;1.43;1.00;;;17.30;86.40;;;;;;5032963;28;20459;-84
2022/06/16 04:50:44;;;;;;;1.47;0.90;;;17.50;86.30;;;;;;5032564;28;20467;-76
2022/06/16 04:53:11;;;;;;;1.50;0.90;;;17.70;85.90;;;;;;5022775;28;20998;-81
2022/06/16 04:55:38;;;;;;;1.47;1.00;;;17.90;85.50;;;;;;5032547;28;20477;-77
2022/06/16 04:58:06;;;;;;;1.50;1.00;;;18.00;84.40;;;;;;5033306;28;20491;-81
2022/06/16 05:00:34;;;;;;;1.40;0.90;;;18.10;83.90;;;;;;5030387;28;20474;-79
2022/06/16 05:03:03;;;;;;;1.50;1.00;;;18.20;83.50;;;;;;5035338;28;20486;-77
2022/06/16 05:05:30;;;;;;;1.50;0.90;;;18.40;83.60;;;;;;5032252;28;20463;-80
2022/06/16 05:07:57;;;;;;;1.50;1.00;;;18.60;83.30;;;;;;5037049;28;20616;-79
2022/06/16 05:10:24;;;;;;;2.23;2.03;;;18.70;83.00;;;;;;5031204;28;20517;-79
2022/06/16 05:12:50;;;;;;;1.40;0.90;;;18.80;82.40;;;;;;5022247;28;20829;-77
2022/06/16 05:15:17;;;;;;;1.47;0.90;;;19.00;82.50;;;;;;5024037;28;20495;-78
2022/06/16 05:17:44;;;;;;;1.50;0.90;;;19.10;80.90;;;;;;5037375;28;20484;-77
2022/06/16 05:20:13;;;;;;;1.47;0.90;;;19.30;81.70;;;;;;5028015;28;20474;-77
2022/06/16 05:22:40;;;;;;;1.47;0.90;;;19.30;80.30;;;;;;5031109;28;20492;-78
2022/06/16 05:25:07;;;;;;;1.40;0.90;;;19.40;80.60;;;;;;5027795;28;20495;-77
2022/06/16 05:27:34;;;;;;;1.47;0.90;;;19.60;80.10;;;;;;5023936;28;20463;-78
2022/06/16 05:30:02;;;;;;;1.40;0.90;;;19.60;79.00;;;;;;5067096;23;20457;-77
2022/06/16 05:32:29;;;;;;;1.43;0.90;;;19.60;79.30;;;;;;5042662;28;20455;-77
2022/06/16 05:34:56;;;;;;;1.47;0.90;;;19.80;79.70;;;;;;5057406;28;20458;-77
2022/06/16 05:37:24;;;;;;;1.43;0.90;;;19.90;79.20;;;;;;5038252;28;20483;-77
2022/06/16 05:39:51;;;;;;;1.50;0.90;;;20.00;78.80;;;;;;5047976;28;20550;-78
2022/06/16 05:42:19;;;;;;;1.43;0.90;;;20.00;79.20;;;;;;5029368;28;20482;-79
2022/06/16 05:44:46;;;;;;;1.47;0.90;;;20.20;79.40;;;;;;5027301;28;20526;-78
2022/06/16 05:47:14;;;;;;;1.47;0.90;;;20.50;77.60;;;;;;5021512;28;20484;-78
2022/06/16 05:49:42;;;;;;;1.43;0.90;;;20.60;77.20;;;;;;5028758;28;20543;-78
2022/06/16 05:52:11;;;;;;;1.43;0.90;;;20.60;77.20;;;;;;5008524;28;20479;-77
2022/06/16 05:54:39;;;;;;;1.47;0.90;;;20.50;76.90;;;;;;5029880;28;20447;-78
2022/06/16 05:57:08;;;;;;;1.50;0.90;;;20.40;77.20;;;;;;5025010;28;20634;-77
2022/06/16 05:59:35;;;;;;;1.43;0.90;;;20.40;77.70;;;;;;5034842;28;20899;-77
2022/06/16 06:02:02;;;;;;;1.47;0.90;;;20.40;77.90;;;;;;5010010;28;20490;-78
2022/06/16 06:04:30;;;;;;;1.47;0.90;;;20.50;77.00;;;;;;5046982;28;20493;-77
2022/06/16 06:06:58;;;;;;;1.47;0.90;;;20.60;77.20;;;;;;5043165;28;20465;-77
2022/06/16 06:17:43;;;;;;;1.43;0.90;;;21.30;75.40;;;;;;5038701;28;20478;-76
2022/06/16 06:20:12;;;;;;;2.53;1.30;;;21.40;75.00;;;;;;5027041;28;21146;-78
2022/06/16 06:22:39;;;;;;;1.40;0.90;;;21.50;75.00;;;;;;5011340;28;20538;-77
2022/06/16 06:25:07;;;;;;;1.47;0.90;;;21.60;74.00;;;;;;5052619;28;20534;-78
2022/06/16 06:27:37;;;;;;;1.50;0.90;;;21.70;73.90;;;;;;5042089;28;20458;-77
2022/06/16 06:30:07;;;;;;;1.40;0.90;;;21.70;73.90;;;;;;5038179;28;20518;-77
2022/06/16 06:32:34;;;;;;;1.47;0.90;;;21.80;74.00;;;;;;5019542;28;20486;-78
2022/06/16 06:35:01;;;;;;;1.50;0.90;;;21.90;73.70;;;;;;5023611;28;20483;-78
2022/06/16 06:37:38;;;;;;;1.43;0.90;;;22.00;73.40;;;;;;5027898;28;20570;-79
2022/06/16 06:40:06;;;;;;;1.43;0.90;;;22.10;73.20;;;;;;5033652;28;20566;-78
2022/06/16 06:42:37;;;;;;;1.47;0.90;;;22.20;72.90;;;;;;5016934;28;20522;-78
2022/06/16 06:45:06;;;;;;;1.70;1.20;;;22.40;72.80;;;;;;5025749;28;20653;-78
2022/06/16 06:47:33;;;;;;;1.50;0.90;;;22.60;72.90;;;;;;5040744;28;20462;-77
2022/06/16 06:50:00;;;;;;;1.47;0.90;;;22.80;72.20;;;;;;5049077;28;20505;-78
2022/06/16 06:52:27;;;;;;;1.43;0.90;;;22.80;71.80;;;;;;5021969;28;20501;-78
2022/06/16 06:54:54;;;;;;;1.47;0.83;;;22.90;72.30;;;;;;5034655;28;21028;-79
2022/06/16 06:57:24;;;;;;;1.40;0.90;;;23.00;72.00;;;;;;5022274;28;20483;-79
2022/06/16 06:59:53;;;;;;;1.43;0.87;;;23.20;71.20;;;;;;5047256;28;20485;-77
2022/06/16 07:02:26;;;;;;;1.50;0.90;;;23.20;70.90;;;;;;5024537;28;20506;-78
2022/06/16 07:04:53;;;;;;;1.50;0.90;;;23.40;71.50;;;;;;5034531;28;20456;-77
2022/06/16 07:07:26;;;;;;;1.50;0.90;;;23.70;71.10;;;;;;5022892;28;20475;-78
2022/06/16 07:09:53;;;;;;;1.50;0.90;;;23.90;70.40;;;;;;5042902;28;20466;-78
2022/06/16 07:12:21;;;;;;;1.47;0.90;;;23.90;70.30;;;;;;5030925;28;20456;-78
2022/06/16 07:14:50;;;;;;;1.47;0.90;;;24.10;69.90;;;;;;5027892;28;20567;-78
2022/06/16 07:17:21;;;;;;;1.47;0.80;;;24.20;69.70;;;;;;5033955;28;20592;-77
2022/06/16 07:19:48;;;;;;;1.57;1.17;;;24.30;70.10;;;;;;5054940;28;20597;-78
2022/06/16 07:22:15;;;;;;;1.50;0.90;;;24.50;69.10;;;;;;5025526;28;21104;-78
2022/06/16 07:24:42;;;;;;;1.47;0.90;;;24.70;69.00;;;;;;5045160;28;20466;-78
2022/06/16 07:27:10;;;;;;;1.47;0.83;;;24.90;68.80;;;;;;5023046;28;20475;-77
2022/06/16 07:29:37;;;;;;;1.47;0.80;;;25.00;68.30;;;;;;5050285;28;20532;-78
2022/06/16 07:32:05;;;;;;;1.43;0.90;;;25.10;68.60;;;;;;5020793;28;20778;-77
2022/06/16 07:34:34;;;;;;;1.40;0.90;;;25.00;67.80;;;;;;5050932;28;20481;-78
2022/06/16 07:37:01;;;;;;;1.47;0.90;;;24.80;68.60;;;;;;5028944;28;20577;-80
2022/06/16 07:39:28;;;;;;;1.47;0.90;;;24.80;69.00;;;;;;5030500;28;20466;-80
2022/06/16 07:41:55;;;;;;;1.50;0.90;;;25.00;68.10;;;;;;5027102;28;20478;-78
2022/06/16 07:44:22;;;;;;;1.47;0.80;;;24.90;67.40;;;;;;5033429;28;20546;-79
2022/06/16 07:46:49;;;;;;;1.50;0.90;;;25.00;68.10;;;;;;5026997;28;20501;-79
2022/06/16 07:49:22;;;;;;;1.47;0.80;;;25.10;68.10;;;;;;5040035;28;20537;-79
2022/06/16 07:51:50;;;;;;;1.47;0.90;;;25.20;66.50;;;;;;5044910;28;21075;-79
2022/06/16 07:54:17;;;;;;;1.43;0.83;;;25.10;66.80;;;;;;5025337;28;20525;-79
2022/06/16 07:56:45;;;;;;;1.47;0.80;;;25.10;67.00;;;;;;5021149;28;20479;-79
2022/06/16 07:59:14;;;;;;;1.47;0.80;;;25.10;67.80;;;;;;5033498;28;20513;-79
2022/06/16 08:01:41;;;;;;;1.47;0.90;;;25.20;67.90;;;;;;5020479;28;20749;-78
2022/06/16 08:04:09;;;;;;;1.50;1.10;;;25.30;68.10;;;;;;5031502;28;20474;-79
2022/06/16 08:06:37;;;;;;;1.47;0.87;;;25.50;67.20;;;;;;5018727;28;20893;-78
2022/06/16 08:09:08;;;;;;;1.47;0.90;;;25.60;67.10;;;;;;5032629;28;20485;-79
2022/06/16 08:14:23;;;;;;;1.83;1.37;;;25.60;65.60;;;;;;5030553;28;20455;-79
2022/06/16 08:16:51;;;;;;;1.50;0.80;;;25.60;67.20;;;;;;5026947;28;20483;-79
2022/06/16 08:19:18;;;;;;;1.47;0.87;;;25.80;66.40;;;;;;5035859;28;20490;-79
2022/06/16 08:21:51;;;;;;;1.47;0.83;;;26.00;67.00;;;;;;5024560;28;20547;-79
2022/06/16 08:24:19;;;;;;;1.50;0.90;;;26.10;65.50;;;;;;5035676;28;20545;-78
2022/06/16 08:26:47;;;;;;;1.40;0.80;;;26.40;65.40;;;;;;5025290;28;20521;-78
2022/06/16 08:29:17;;;;;;;1.40;0.80;;;26.60;65.50;;;;;;5031772;28;20500;-78
2022/06/16 08:31:45;;;;;;;1.50;0.80;;;26.90;64.20;;;;;;5025040;28;20497;-78
2022/06/16 08:34:12;;;;;;;1.50;0.90;;;27.00;64.30;;;;;;5036330;28;20463;-78
2022/06/16 08:36:56;;;;;;;1.50;0.80;;;27.00;64.50;;;;;;5026451;28;20764;-79
2022/06/16 08:39:25;;;;;;;1.40;0.80;;;27.10;63.50;;;;;;5048706;28;20468;-79
2022/06/16 08:42:02;;;;;;;1.43;0.90;;;27.00;63.10;;;;;;5013054;28;20904;-77
2022/06/16 08:44:34;;;;;;;1.47;0.80;;;27.00;63.00;;;;;;5025257;28;20478;-79
2022/06/16 08:47:06;;;;;;;1.43;0.80;;;26.90;63.30;;;;;;5013063;28;20833;-78
2022/06/16 08:49:42;;;;;;;1.40;0.87;;;26.90;62.30;;;;;;5028442;28;20569;-79
2022/06/16 08:52:24;;;;;;;1.43;0.80;;;27.00;62.70;;;;;;5035994;28;20522;-78
2022/06/16 08:55:03;;;;;;;1.43;0.80;;;27.10;61.80;;;;;;5038520;28;20546;-78
2022/06/16 08:57:37;;;;;;;1.40;0.80;;;27.30;60.10;;;;;;5017003;28;20509;-78
2022/06/16 09:00:08;;;;;;;1.50;0.90;;;27.20;60.20;;;;;;5031348;28;20576;-79
2022/06/16 09:02:41;;;;;;;1.47;0.80;;;27.30;60.80;;;;;;5033703;28;20514;-78
2022/06/16 09:05:15;;;;;;;1.43;0.80;;;27.30;59.40;;;;;;5025228;28;20997;-77
2022/06/16 09:07:51;;;;;;;1.47;0.80;;;27.50;60.10;;;;;;5027245;28;20493;-78
2022/06/16 09:10:30;;;;;;;1.50;0.90;;;27.60;59.50;;;;;;5023055;28;20482;-79
2022/06/16 09:13:25;;;;;;;1.43;0.80;;;27.70;59.50;;;;;;5014950;28;20779;-77
2022/06/16 09:16:02;;;;;;;1.87;1.40;;;27.80;58.70;;;;;;5018762;28;21216;-78
2022/06/16 09:18:56;;;;;;;1.43;0.80;;;27.80;58.00;;;;;;5034063;28;20966;-78
2022/06/16 09:21:29;;;;;;;1.43;0.80;;;27.90;59.10;;;;;;5019800;28;20482;-79
2022/06/16 09:24:13;;;;;;;1.43;0.80;;;28.00;57.90;;;;;;5025812;28;20597;-78
2022/06/16 09:26:46;;;;;;;1.40;0.80;;;28.00;58.90;;;;;;5022531;28;20482;-79
2022/06/16 09:29:20;;;;;;;1.50;0.80;;;28.20;58.90;;;;;;5034432;28;20482;-77
2022/06/16 09:31:57;;;;;;;1.40;0.83;;;28.30;58.30;;;;;;5020894;28;20521;-78
2022/06/16 09:34:32;;;;;;;1.43;0.80;;;28.40;57.30;;;;;;5034292;28;20840;-78
2022/06/16 09:37:03;;;;;;;1.43;0.80;;;28.40;56.10;;;;;;5034553;28;20462;-78
2022/06/16 09:39:34;;;;;;;1.43;0.80;;;28.60;58.30;;;;;;5029689;28;20584;-78
2022/06/16 09:45:01;;;;;;;1.50;1.00;;;28.60;56.80;;;;;;5022345;28;20585;-78
2022/06/16 09:47:35;;;;;;;1.50;0.80;;;28.80;56.80;;;;;;5028810;28;20489;-78
2022/06/16 09:50:09;;;;;;;1.43;0.80;;;28.80;56.50;;;;;;5028071;28;20478;-77
2022/06/16 09:52:42;;;;;;;2.17;1.10;;;28.80;56.20;;;;;;5026619;28;20462;-78
2022/06/16 09:55:16;;;;;;;1.60;1.00;;;28.90;57.30;;;;;;5028131;28;20465;-78
2022/06/16 09:57:48;;;;;;;1.50;0.90;;;29.10;58.00;;;;;;5024277;28;20494;-78
2022/06/16 10:00:18;;;;;;;1.47;0.80;;;29.30;58.40;;;;;;5027126;28;20792;-78
2022/06/16 10:02:48;;;;;;;1.43;0.80;;;29.30;55.80;;;;;;5010272;28;20482;-78
2022/06/16 10:05:17;;;;;;;1.40;0.80;;;29.20;55.70;;;;;;5027044;28;20491;-77
2022/06/16 10:07:56;;;;;;;1.43;0.80;;;29.30;55.80;;;;;;5021354;28;20502;-78
2022/06/16 10:10:29;;;;;;;1.50;1.10;;;29.30;57.20;;;;;;5028637;28;20489;-78
2022/06/16 10:13:04;;;;;;;1.40;0.80;;;29.30;55.10;;;;;;5009770;28;20478;-78
2022/06/16 10:15:36;;;;;;;1.50;0.80;;;29.40;56.50;;;;;;5028724;28;20931;-78
2022/06/16 10:18:04;;;;;;;1.43;0.80;;;29.40;56.70;;;;;;5029967;28;21090;-78
2022/06/16 10:20:31;;;;;;;1.43;0.80;;;29.50;56.40;;;;;;5028953;28;20867;-78
2022/06/16 10:23:03;;;;;;;1.43;0.80;;;29.60;55.70;;;;;;5018537;28;20482;-78
2022/06/16 10:25:35;;;;;;;1.43;0.80;;;29.80;56.70;;;;;;5027949;28;20477;-78
2022/06/16 10:28:20;;;;;;;1.40;0.90;;;29.80;55.70;;;;;;5010525;28;21001;-78
2022/06/16 10:30:47;;;;;;;1.40;0.80;;;30.00;56.30;;;;;;5018850;28;20487;-78
2022/06/16 10:33:19;;;;;;;1.50;0.80;;;30.20;55.50;;;;;;5009501;28;20878;-79
2022/06/16 10:35:51;;;;;;;1.50;0.90;;;30.10;54.40;;;;;;5038111;28;20471;-78
2022/06/16 10:38:53;;;;;;;1.40;0.80;;;30.10;55.00;;;;;;5032520;28;20567;-78
2022/06/16 10:41:31;;;;;;;1.40;0.80;;;30.30;55.60;;;;;;5014078;28;20481;-78
2022/06/16 10:44:01;;;;;;;1.40;0.80;;;30.40;53.80;;;;;;5020334;28;20473;-78
2022/06/16 10:46:31;;;;;;;1.43;0.80;;;30.50;55.00;;;;;;5024214;28;20466;-77
2022/06/16 10:49:04;;;;;;;1.50;0.80;;;30.40;53.50;;;;;;5030636;28;20566;-78
2022/06/16 10:51:36;;;;;;;1.43;0.80;;;30.20;53.80;;;;;;5018696;28;20609;-81
2022/06/16 10:54:19;;;;;;;1.47;0.80;;;30.10;54.30;;;;;;5036328;28;20450;-82
2022/06/16 10:56:50;;;;;;;1.40;0.80;;;30.10;53.30;;;;;;5043323;28;20799;-83
2022/06/16 10:59:20;;;;;;;1.50;0.80;;;30.30;53.80;;;;;;5037843;28;20536;-80
2022/06/16 11:01:53;;;;;;;1.50;0.80;;;30.20;51.90;;;;;;5021850;28;20485;-80
2022/06/16 11:04:23;;;;;;;1.40;0.80;;;30.10;53.20;;;;;;5038670;28;20212;-81
2022/06/16 11:06:53;;;;;;;1.40;0.80;;;30.00;51.50;;;;;;5040028;28;20466;-82
2022/06/16 11:09:22;;;;;;;1.43;0.80;;;29.70;51.90;;;;;;5042489;28;20511;-79
2022/06/16 11:11:55;;;;;;;1.43;0.80;;;29.40;52.80;;;;;;5030007;28;20501;-80
2022/06/16 11:14:31;;;;;;;1.40;0.80;;;29.50;53.50;;;;;;5024376;28;20858;-79
2022/06/16 11:16:59;;;;;;;1.47;0.80;;;29.60;53.70;;;;;;5020010;28;20669;-76
2022/06/16 11:19:29;;;;;;;1.40;0.80;;;29.40;51.80;;;;;;5031406;28;20546;-83
2022/06/16 11:21:57;;;;;;;1.40;0.80;;;29.40;54.50;;;;;;5031713;28;20951;-78
2022/06/16 11:24:28;;;;;;;1.40;0.80;;;29.40;52.80;;;;;;5035705;28;21192;-80
2022/06/16 11:27:09;;;;;;;1.43;0.80;;;29.30;53.50;;;;;;5025748;28;20478;-79
2022/06/16 11:29:37;;;;;;;1.40;0.80;;;29.40;54.60;;;;;;5039452;28;21187;-80
2022/06/16 11:32:10;;;;;;;1.40;0.80;;;29.50;53.60;;;;;;5015839;28;20496;-80
2022/06/16 11:34:42;;;;;;;1.40;0.80;;;29.20;52.20;;;;;;5030808;28;20493;-77
2022/06/16 11:37:39;;;;;;;1.40;0.80;;;29.30;52.20;;;;;;5013941;28;20545;-79
2022/06/16 11:40:19;;;;;;;1.40;0.80;;;29.50;53.70;;;;;;5028955;28;20520;-78
2022/06/16 11:43:06;;;;;;;1.40;0.80;;;29.50;51.90;;;;;;5025652;28;20474;-79
2022/06/16 11:45:38;;;;;;;1.40;0.80;;;29.30;52.20;;;;;;5026588;28;20537;-83
2022/06/16 11:48:18;;;;;;;1.40;0.90;;;29.20;53.10;;;;;;5018050;28;20505;-79
2022/06/16 11:50:50;;;;;;;1.40;0.80;;;29.30;54.40;;;;;;5030450;28;20482;-79
2022/06/16 11:53:33;;;;;;;1.43;0.90;;;29.60;54.20;;;;;;5013893;28;20478;-79
2022/06/16 11:56:05;;;;;;;1.40;0.80;;;29.70;53.60;;;;;;5036792;28;20474;-80
2022/06/16 11:58:53;;;;;;;1.40;0.80;;;29.60;53.00;;;;;;5034077;28;20493;-80
2022/06/16 12:01:28;;;;;;;1.40;0.90;;;29.90;53.70;;;;;;5026343;28;20486;-78
2022/06/16 12:04:31;;;;;;;1.43;0.80;;;30.10;53.60;;;;;;5036125;28;20459;-79
2022/06/16 12:07:20;;;;;;;1.40;0.80;;;30.20;52.40;;;;;;5020605;28;20486;-79
2022/06/16 12:09:59;;;;;;;1.40;0.80;;;30.20;53.30;;;;;;5035117;28;20490;-80
2022/06/16 12:12:56;;;;;;;1.40;0.80;;;30.30;51.90;;;;;;5027763;28;20552;-79
2022/06/16 12:16:13;;;;;;;;;;;;;;;;;;;;;
2022/06/16 12:19:00;;;;;;;1.73;1.40;;;30.40;53.80;;;;;;5035192;28;20478;-78
2022/06/16 12:22:06;;;;;;;1.40;0.80;;;30.60;53.60;;;;;;5033390;28;20481;-78
2022/06/16 12:24:50;;;;;;;1.50;1.03;;;30.80;52.30;;;;;;5029441;28;20474;-81
2022/06/16 12:27:44;;;;;;;1.50;1.00;;;31.00;51.50;;;;;;5041567;28;20540;-78
2022/06/16 12:34:03;;;;;;;1.40;0.80;;;31.10;51.70;;;;;;4921067;29;20570;-78
2022/06/16 12:36:36;;;;;;;1.50;1.20;;;30.70;51.50;;;;;;4912050;29;20233;-77
2022/06/16 12:39:25;;;;;;;1.60;1.20;;;30.60;52.50;;;;;;5027457;28;20247;-79
2022/06/16 12:41:59;;;;;;;1.43;0.80;;;30.50;51.90;;;;;;5024790;28;20490;-78
2022/06/16 12:44:42;;;;;;;1.43;0.87;;;30.40;53.80;;;;;;5032860;28;20210;-81
2022/06/16 12:47:27;;;;;;;1.73;1.10;;;30.60;53.70;;;;;;5023287;28;20540;-77
2022/06/16 12:50:13;;;;;;;1.40;0.80;;;30.80;54.30;;;;;;5036807;28;20486;-76
2022/06/16 12:53:04;;;;;;;1.50;1.30;;;30.90;52.80;;;;;;5035215;28;20231;-77
2022/06/16 12:55:36;;;;;;;3.10;1.57;;;30.80;53.70;;;;;;5042448;28;20227;-77
2022/06/16 12:58:11;;;;;;;1.40;0.80;;;31.00;53.20;;;;;;5034424;28;20497;-76
2022/06/16 13:00:47;;;;;;;1.40;0.80;;;31.10;52.60;;;;;;5035517;28;20900;-77
2022/06/16 13:03:22;;;;;;;1.40;0.90;;;31.10;53.10;;;;;;5038394;28;20215;-76
2022/06/16 13:06:00;;;;;;;1.40;0.80;;;31.10;52.40;;;;;;5040779;28;20220;-76
2022/06/16 13:08:39;;;;;;;1.60;1.40;;;30.90;51.20;;;;;;5024343;28;20262;-76
2022/06/16 13:11:14;;;;;;;1.50;1.00;;;31.10;52.80;;;;;;5017900;28;20245;-73
2022/06/16 13:16:32;;;;;;;1.43;0.90;;;31.00;54.10;;;;;;5031986;22;20234;-77
2022/06/16 13:19:06;;;;;;;1.40;0.80;;;31.10;53.50;;;;;;5063312;28;20222;-77
2022/06/16 13:21:39;;;;;;;1.40;0.80;;;31.30;52.80;;;;;;5072419;28;20244;-76
2022/06/16 13:24:21;;;;;;;1.40;0.80;;;31.30;52.70;;;;;;5077358;28;20221;-78
2022/06/16 13:26:59;;;;;;;1.60;1.20;;;31.20;52.30;;;;;;5059897;28;20329;-80
2022/06/16 13:29:33;;;;;;;1.40;0.80;;;31.30;53.10;;;;;;5079093;28;20222;-78
2022/06/16 13:32:20;;;;;;;1.40;0.80;;;31.30;53.00;;;;;;5077675;28;20233;-79
2022/06/16 13:34:54;;;;;;;1.40;0.80;;;31.30;52.40;;;;;;5075266;28;20519;-77
2022/06/16 13:37:38;;;;;;;1.40;0.90;;;30.80;53.40;;;;;;5063300;28;20377;-75